Time;durP1;ratioP1;P1;durP2;ratioP2;P2;SDS_P1;SDS_P2;PMS_P1;PMS_P2;Temp;Humidity;BMP_temperature;BMP_pressure;BME280_temperature;BME280_humidity;BME280_pressure;Samples;Min_cycle;Max_cycle;Signal;HPM_P1;HPM_P2
2022/07/21 00:00:07;;;;;;;15.15;13.55;;;;;;;21.88;84.52;99811.47;343468;28;1322;-74
2022/07/21 00:00:21;;;;;;;15.20;13.60;;;;;;;21.79;84.83;99812.19;343151;28;1982;-73
2022/07/21 00:00:33;;;;;;;15.40;13.80;;;;;;;21.81;84.60;99810.28;343545;28;1042;-73
2022/07/21 00:00:45;;;;;;;16.15;13.77;;;;;;;21.81;85.34;99810.28;343316;28;1079;-74
2022/07/21 00:00:57;;;;;;;16.42;13.85;;;;;;;21.74;85.46;99811.72;342493;28;1172;-73
2022/07/21 00:01:10;;;;;;;16.55;14.13;;;;;;;21.75;85.46;99810.72;342309;28;1012;-73
2022/07/21 00:01:22;;;;;;;16.23;14.00;;;;;;;21.80;84.98;99807.75;342474;28;1261;-73
2022/07/21 00:01:34;;;;;;;16.02;13.90;;;;;;;21.75;85.12;99805.44;342136;28;1055;-73
2022/07/21 00:01:48;;;;;;;16.15;13.93;;;;;;;21.82;85.19;99811.97;342099;28;1757;-74
2022/07/21 00:02:00;;;;;;;16.35;14.15;;;;;;;21.85;84.87;99817.03;343578;28;1836;-73
2022/07/21 00:02:12;;;;;;;15.57;13.88;;;;;;;21.89;84.70;99807.88;345101;28;1186;-73
2022/07/21 00:02:24;;;;;;;15.43;13.75;;;;;;;21.89;84.78;99812.31;343881;28;1894;-73
2022/07/21 00:02:36;;;;;;;16.08;13.70;;;;;;;21.92;84.43;99807.63;343546;28;1313;-73
2022/07/21 00:02:49;;;;;;;17.95;13.65;;;;;;;21.92;84.42;99812.94;342395;28;2004;-74
2022/07/21 00:03:01;;;;;;;18.10;13.77;;;;;;;21.88;84.36;99816.78;343221;28;1890;-74
2022/07/21 00:03:13;;;;;;;17.20;13.80;;;;;;;21.90;84.58;99806.91;343566;28;1239;-73
2022/07/21 00:03:25;;;;;;;16.73;13.73;;;;;;;21.93;84.37;99811.97;342802;28;2290;-74
2022/07/21 00:03:37;;;;;;;16.13;13.57;;;;;;;21.92;84.47;99812.94;343486;28;1046;-74
2022/07/21 00:03:49;;;;;;;17.27;13.63;;;;;;;21.93;84.13;99819.91;343308;28;1257;-73
2022/07/21 00:04:02;;;;;;;16.50;13.57;;;;;;;21.92;84.44;99812.94;342947;28;1988;-73
2022/07/21 00:04:15;;;;;;;16.07;13.23;;;;;;;21.88;84.27;99806.19;343263;28;1481;-73
2022/07/21 00:04:27;;;;;;;17.58;13.30;;;;;;;21.93;84.30;99813.75;343352;28;1161;-73
2022/07/21 00:04:39;;;;;;;17.92;13.27;;;;;;;21.95;84.41;99809.19;342706;28;2318;-74
2022/07/21 00:04:52;;;;;;;15.80;13.13;;;;;;;21.91;84.04;99805.97;343478;28;1775;-73
2022/07/21 00:05:04;;;;;;;15.83;13.40;;;;;;;21.91;84.05;99813.91;344474;28;1177;-73
2022/07/21 00:05:17;;;;;;;16.75;13.55;;;;;;;21.80;84.63;99807.75;345191;28;1069;-73
2022/07/21 00:05:29;;;;;;;17.42;13.50;;;;;;;21.81;84.54;99810.28;345008;28;1114;-73
2022/07/21 00:05:41;;;;;;;17.50;13.60;;;;;;;21.84;84.88;99815.31;345025;28;1190;-73
2022/07/21 00:05:53;;;;;;;15.27;13.45;;;;;;;21.84;84.58;99809.19;343549;28;1414;-73
2022/07/21 00:06:06;;;;;;;15.47;13.50;;;;;;;21.85;84.53;99811.72;342361;28;1899;-73
2022/07/21 00:06:18;;;;;;;16.02;13.45;;;;;;;21.82;84.13;99806.66;343171;28;1562;-73
2022/07/21 00:06:30;;;;;;;16.55;13.25;;;;;;;21.82;84.84;99809.31;343369;28;1207;-73
2022/07/21 00:06:43;;;;;;;16.65;13.15;;;;;;;21.82;84.42;99816.41;342692;28;1574;-73
2022/07/21 00:06:55;;;;;;;16.35;13.38;;;;;;;21.77;84.80;99807.97;343519;28;1798;-73
2022/07/21 00:07:07;;;;;;;16.00;13.50;;;;;;;21.80;84.73;99808.59;343884;28;1149;-73
2022/07/21 00:07:19;;;;;;;15.07;13.35;;;;;;;21.77;84.72;99803.50;343651;28;1297;-73
2022/07/21 00:07:31;;;;;;;14.75;13.15;;;;;;;21.80;84.76;99805.94;343579;28;1059;-74
2022/07/21 00:07:43;;;;;;;16.73;13.13;;;;;;;21.81;84.96;99805.00;343108;28;1631;-73
2022/07/21 00:07:56;;;;;;;16.83;13.75;;;;;;;21.85;84.87;99811.72;342327;28;1682;-73
2022/07/21 00:08:08;;;;;;;16.67;13.73;;;;;;;21.81;84.81;99815.56;344687;28;1190;-73
2022/07/21 00:08:20;;;;;;;15.82;13.50;;;;;;;21.79;84.87;99814.81;343453;28;1823;-74
2022/07/21 00:08:32;;;;;;;15.55;13.38;;;;;;;21.81;84.68;99804.13;344742;28;1111;-74
2022/07/21 00:08:44;;;;;;;17.20;13.68;;;;;;;21.83;85.19;99810.16;344068;28;1854;-74
2022/07/21 00:08:56;;;;;;;16.88;13.77;;;;;;;21.79;85.21;99812.19;343280;28;1743;-74
2022/07/21 00:09:09;;;;;;;17.58;13.90;;;;;;;21.80;85.23;99813.03;343485;28;1975;-74
2022/07/21 00:09:21;;;;;;;16.33;13.73;;;;;;;21.85;85.19;99814.38;343431;28;1087;-74
2022/07/21 00:09:35;;;;;;;15.73;13.38;;;;;;;21.87;85.18;99808.94;342089;28;1026;-74
2022/07/21 00:09:47;;;;;;;16.15;13.50;;;;;;;21.90;84.98;99806.06;342412;28;1211;-74
2022/07/21 00:09:59;;;;;;;16.58;13.80;;;;;;;21.88;84.75;99806.19;342674;28;1324;-73
2022/07/21 00:10:12;;;;;;;16.30;13.48;;;;;;;21.91;84.50;99805.97;344101;28;1010;-74
2022/07/21 00:10:25;;;;;;;15.65;13.52;;;;;;;21.94;84.16;99800.41;343272;28;1679;-74
2022/07/21 00:10:37;;;;;;;16.10;13.30;;;;;;;21.95;84.32;99801.25;343643;28;1183;-74
2022/07/21 00:10:49;;;;;;;15.65;12.73;;;;;;;21.96;84.22;99802.13;343330;28;1741;-73
2022/07/21 00:11:01;;;;;;;15.98;12.88;;;;;;;21.97;84.60;99798.50;343688;28;1657;-73
2022/07/21 00:11:13;;;;;;;14.48;12.98;;;;;;;21.96;84.13;99791.53;343893;28;1459;-74
2022/07/21 00:11:25;;;;;;;15.00;13.40;;;;;;;21.97;83.89;99794.03;343592;28;1690;-74
2022/07/21 00:11:38;;;;;;;15.25;13.38;;;;;;;21.98;84.19;99789.59;342888;28;1716;-74
2022/07/21 00:11:50;;;;;;;18.52;13.35;;;;;;;21.96;83.69;99792.38;343634;28;1067;-74
2022/07/21 00:12:03;;;;;;;18.92;13.32;;;;;;;21.99;84.10;99791.28;343806;28;1624;-74
2022/07/21 00:12:15;;;;;;;17.90;13.57;;;;;;;22.00;84.30;99787.69;343474;28;1169;-74
2022/07/21 00:12:27;;;;;;;18.13;13.70;;;;;;;22.02;83.89;99788.41;343518;28;2115;-74
2022/07/21 00:12:40;;;;;;;18.98;13.65;;;;;;;22.02;83.90;99788.41;343685;28;1054;-74
2022/07/21 00:12:54;;;;;;;19.58;13.40;;;;;;;22.04;84.07;99789.13;343419;28;1500;-74
2022/07/21 00:13:06;;;;;;;18.02;13.52;;;;;;;22.02;83.68;99791.06;343905;28;1760;-73
2022/07/21 00:13:18;;;;;;;16.08;13.38;;;;;;;22.03;83.54;99787.44;345612;28;1085;-73
2022/07/21 00:13:30;;;;;;;15.75;13.20;;;;;;;22.04;83.64;99794.41;345382;28;1333;-74
2022/07/21 00:13:43;;;;;;;15.82;12.63;;;;;;;22.05;83.71;99785.50;345673;28;1794;-74
2022/07/21 00:13:55;;;;;;;16.17;12.63;;;;;;;22.07;83.34;99794.16;344917;28;1609;-74
2022/07/21 00:14:09;;;;;;;15.30;12.77;;;;;;;22.04;83.24;99792.59;344910;28;2177;-74
2022/07/21 00:14:21;;;;;;;14.88;12.80;;;;;;;22.04;83.05;99794.41;344781;28;999;-74
2022/07/21 00:14:33;;;;;;;14.65;12.60;;;;;;;22.06;83.41;99792.50;345973;28;1079;-74
2022/07/21 00:14:45;;;;;;;14.30;12.70;;;;;;;22.04;83.45;99795.25;345350;28;1850;-73
2022/07/21 00:14:57;;;;;;;14.73;12.88;;;;;;;22.03;83.02;99793.56;343882;28;1649;-74
2022/07/21 00:15:10;;;;;;;15.35;13.05;;;;;;;21.99;83.15;99796.56;343751;28;1794;-73
2022/07/21 00:15:25;;;;;;;17.10;13.35;;;;;;;21.97;83.26;99798.50;343753;28;1955;-74
2022/07/21 00:15:37;;;;;;;18.83;13.60;;;;;;;21.96;83.92;99796.81;344345;28;935;-74
2022/07/21 00:15:49;;;;;;;19.58;13.32;;;;;;;21.94;83.84;99800.41;343118;28;2215;-74
2022/07/21 00:16:02;;;;;;;19.00;13.07;;;;;;;21.96;83.62;99799.47;343655;28;1900;-74
2022/07/21 00:16:14;;;;;;;18.75;13.25;;;;;;;21.99;83.57;99799.22;345008;28;1208;-74
2022/07/21 00:16:35;;;;;;;17.45;13.32;;;;;;;21.88;83.74;99806.19;344957;28;1033;-73
2022/07/21 00:16:47;;;;;;;16.25;13.35;;;;;;;21.88;84.13;99802.72;344215;28;1856;-74
2022/07/21 00:16:59;;;;;;;15.60;13.38;;;;;;;21.86;83.86;99808.13;343297;28;1991;-72
2022/07/21 00:17:11;;;;;;;16.17;13.50;;;;;;;21.91;83.89;99808.63;343384;28;1360;-74
2022/07/21 00:17:23;;;;;;;16.20;13.38;;;;;;;21.97;83.85;99809.09;342367;28;1970;-74
2022/07/21 00:17:36;;;;;;;16.15;13.27;;;;;;;22.03;83.52;99808.59;343899;28;1490;-74
2022/07/21 00:17:48;;;;;;;15.40;13.07;;;;;;;22.03;83.74;99803.31;343732;28;2363;-73
2022/07/21 00:18:00;;;;;;;15.25;13.07;;;;;;;22.06;83.10;99803.09;343751;28;1701;-74
2022/07/21 00:18:12;;;;;;;15.25;13.25;;;;;;;22.09;83.29;99808.13;345385;28;1250;-74
2022/07/21 00:18:27;;;;;;;16.40;13.10;;;;;;;22.08;83.21;99807.28;344272;28;1981;-74
2022/07/21 00:18:39;;;;;;;15.57;12.98;;;;;;;22.09;83.27;99802.81;342590;28;1109;-74
2022/07/21 00:18:51;;;;;;;15.05;13.45;;;;;;;22.10;83.34;99800.06;342985;28;1918;-74
2022/07/21 00:19:04;;;;;;;15.88;13.60;;;;;;;22.10;82.81;99805.38;344868;28;1732;-74
2022/07/21 00:19:17;;;;;;;15.70;13.52;;;;;;;22.12;82.98;99803.44;345358;28;1118;-74
2022/07/21 00:19:29;;;;;;;15.55;13.90;;;;;;;22.13;83.04;99801.63;345172;28;1182;-74
2022/07/21 00:19:41;;;;;;;16.17;14.20;;;;;;;22.16;82.66;99803.22;345151;28;1095;-74
2022/07/21 00:19:53;;;;;;;17.05;14.25;;;;;;;22.13;83.12;99797.19;343481;28;1502;-74
2022/07/21 00:20:07;;;;;;;16.25;13.95;;;;;;;22.16;83.18;99798.75;344233;28;1047;-74
2022/07/21 00:20:20;;;;;;;15.18;13.57;;;;;;;22.17;82.91;99803.06;345378;28;1173;-74
2022/07/21 00:20:32;;;;;;;14.68;13.18;;;;;;;22.20;82.91;99802.84;343006;28;1707;-74
2022/07/21 00:20:45;;;;;;;14.75;13.20;;;;;;;22.17;82.91;99800.41;343692;28;1788;-74
2022/07/21 00:20:57;;;;;;;16.05;13.50;;;;;;;22.21;82.69;99801.84;343601;28;1622;-74
2022/07/21 00:21:09;;;;;;;17.20;13.50;;;;;;;22.23;82.57;99799.94;343229;28;1405;-74
2022/07/21 00:21:21;;;;;;;17.65;13.55;;;;;;;22.25;82.44;99802.50;343689;28;1023;-74
2022/07/21 00:21:34;;;;;;;19.65;13.88;;;;;;;22.21;83.33;99798.38;343700;28;1258;-74
2022/07/21 00:21:46;;;;;;;17.95;13.60;;;;;;;22.24;82.80;99800.84;344345;28;1894;-74
2022/07/21 00:21:58;;;;;;;17.40;13.55;;;;;;;22.21;82.56;99793.91;344674;28;1743;-74
2022/07/21 00:22:10;;;;;;;15.30;13.70;;;;;;;22.24;82.72;99798.19;343959;28;1521;-74
2022/07/21 00:22:22;;;;;;;15.40;13.73;;;;;;;22.24;82.52;99798.19;346415;28;1664;-74
2022/07/21 00:22:34;;;;;;;15.38;13.45;;;;;;;22.22;82.48;99792.97;346138;28;1070;-74
2022/07/21 00:22:47;;;;;;;15.63;13.30;;;;;;;22.26;82.41;99801.56;346071;28;1831;-74
2022/07/21 00:22:59;;;;;;;15.40;13.07;;;;;;;22.28;82.44;99797.81;345376;28;1358;-74
2022/07/21 00:23:11;;;;;;;16.65;13.02;;;;;;;22.30;82.04;99801.19;345664;28;1656;-74
2022/07/21 00:23:24;;;;;;;17.60;13.50;;;;;;;22.21;82.04;99796.56;345997;28;1878;-74
2022/07/21 00:23:36;;;;;;;16.20;13.85;;;;;;;22.24;82.53;99796.38;344959;28;1055;-74
2022/07/21 00:23:48;;;;;;;15.02;13.43;;;;;;;22.25;82.27;99792.75;345302;28;1838;-74
2022/07/21 00:24:00;;;;;;;16.50;13.43;;;;;;;22.23;82.43;99797.28;345573;28;1842;-74
2022/07/21 00:24:12;;;;;;;16.90;13.70;;;;;;;22.25;82.34;99791.91;345983;28;1027;-74
2022/07/21 00:24:24;;;;;;;14.93;13.10;;;;;;;22.28;82.13;99797.81;345014;28;1209;-74
2022/07/21 00:24:36;;;;;;;15.20;12.88;;;;;;;22.29;82.38;99793.34;343922;28;1187;-74
2022/07/21 00:24:48;;;;;;;16.33;13.00;;;;;;;22.28;82.13;99797.81;343688;28;1776;-74
2022/07/21 00:25:01;;;;;;;16.75;13.65;;;;;;;22.29;82.40;99799.47;343171;28;1533;-74
2022/07/21 00:25:14;;;;;;;16.48;13.68;;;;;;;22.30;82.15;99795.88;344076;28;1083;-74
2022/07/21 00:25:26;;;;;;;17.20;13.75;;;;;;;22.28;82.30;99794.31;343912;28;1198;-74
2022/07/21 00:25:45;;;;;;;17.38;14.10;;;;;;;22.25;82.14;99794.56;343458;28;1740;-74
2022/07/21 00:25:57;;;;;;;16.02;14.00;;;;;;;22.22;82.93;99792.97;343573;28;1516;-74
2022/07/21 00:26:09;;;;;;;15.80;14.10;;;;;;;22.20;83.04;99794.91;344974;28;1059;-74
2022/07/21 00:26:21;;;;;;;15.00;13.50;;;;;;;22.19;83.08;99790.53;344716;28;1043;-74
2022/07/21 00:26:33;;;;;;;15.05;13.52;;;;;;;22.23;83.31;99792.00;345632;28;1636;-74
2022/07/21 00:26:45;;;;;;;15.18;13.57;;;;;;;22.24;83.49;99791.06;344976;28;1778;-74
2022/07/21 00:26:57;;;;;;;16.45;13.50;;;;;;;22.27;83.02;99793.47;344834;28;1473;-74
2022/07/21 00:27:09;;;;;;;16.60;13.73;;;;;;;22.30;83.78;99790.59;344889;28;1261;-74
2022/07/21 00:27:21;;;;;;;15.88;13.85;;;;;;;22.33;83.08;99787.72;344917;28;1067;-74
2022/07/21 00:27:34;;;;;;;16.25;14.02;;;;;;;22.34;82.87;99786.72;344856;28;1189;-74
2022/07/21 00:27:46;;;;;;;16.60;13.57;;;;;;;22.33;82.25;99785.06;344407;28;1687;-74
2022/07/21 00:27:58;;;;;;;16.20;13.10;;;;;;;22.38;81.80;99786.50;344946;28;1292;-74
2022/07/21 00:28:10;;;;;;;16.45;13.45;;;;;;;22.40;81.61;99780.09;343882;28;1698;-74
2022/07/21 00:28:22;;;;;;;14.95;13.20;;;;;;;22.41;81.56;99780.94;342569;28;1073;-74
2022/07/21 00:28:34;;;;;;;15.13;13.18;;;;;;;22.42;81.72;99777.34;342321;28;1087;-74
2022/07/21 00:28:48;;;;;;;14.60;13.05;;;;;;;22.42;81.66;99777.34;342732;28;2085;-74
2022/07/21 00:29:00;;;;;;;15.15;12.93;;;;;;;22.43;81.45;99779.00;343035;28;1834;-74
2022/07/21 00:29:12;;;;;;;15.68;12.95;;;;;;;22.44;81.75;99778.06;344026;28;1038;-74
2022/07/21 00:29:24;;;;;;;14.15;12.65;;;;;;;22.45;81.72;99777.91;343435;28;1866;-74
2022/07/21 00:29:36;;;;;;;14.07;12.52;;;;;;;22.45;81.83;99777.09;345226;28;1160;-74
2022/07/21 00:29:48;;;;;;;14.25;12.65;;;;;;;22.45;81.48;99774.44;343669;28;1682;-74
2022/07/21 00:30:00;;;;;;;14.30;12.70;;;;;;;22.45;81.57;99777.91;343085;28;1606;-74
2022/07/21 00:30:13;;;;;;;15.13;13.07;;;;;;;22.44;82.22;99773.59;343905;28;1238;-74
2022/07/21 00:30:26;;;;;;;15.65;13.40;;;;;;;22.45;82.56;99766.50;343395;28;2217;-74
2022/07/21 00:30:38;;;;;;;15.20;13.15;;;;;;;22.47;82.01;99778.63;344969;28;1573;-74
2022/07/21 00:30:50;;;;;;;14.70;13.05;;;;;;;22.48;81.96;99771.56;343794;28;1799;-74
2022/07/21 00:31:03;;;;;;;15.90;13.10;;;;;;;22.47;81.59;99780.44;343887;28;1907;-74
2022/07/21 00:31:15;;;;;;;16.58;13.02;;;;;;;22.47;81.29;99775.97;345161;28;1091;-75
2022/07/21 00:31:27;;;;;;;16.13;13.10;;;;;;;22.49;81.40;99775.88;344542;28;1130;-74
2022/07/21 00:31:39;;;;;;;16.38;13.32;;;;;;;22.51;82.11;99776.59;345251;28;1110;-74
2022/07/21 00:31:52;;;;;;;17.75;13.60;;;;;;;22.50;82.39;99781.06;341468;28;2163;-75
2022/07/21 00:32:05;;;;;;;19.15;13.98;;;;;;;22.51;82.91;99781.88;343363;28;1424;-74
2022/07/21 00:32:17;;;;;;;16.70;14.15;;;;;;;22.52;82.59;99776.47;343995;28;1829;-74
2022/07/21 00:32:29;;;;;;;15.50;13.52;;;;;;;22.53;82.09;99779.94;344214;28;1220;-74
2022/07/21 00:32:47;;;;;;;14.38;12.88;;;;;;;22.52;81.12;99783.59;344122;28;2422;-75
2022/07/21 00:32:59;;;;;;;14.35;12.88;;;;;;;22.49;81.48;99783.81;342802;28;1271;-74
2022/07/21 00:33:11;;;;;;;14.32;12.75;;;;;;;22.50;81.19;99774.91;342468;28;1318;-74
2022/07/21 00:33:23;;;;;;;14.27;12.80;;;;;;;22.51;81.10;99776.59;342700;28;1113;-74
2022/07/21 00:33:35;;;;;;;14.13;12.73;;;;;;;22.51;81.19;99781.88;343155;28;1327;-74
2022/07/21 00:33:50;;;;;;;14.45;12.95;;;;;;;22.54;81.15;99779.00;343064;28;1686;-74
2022/07/21 00:34:03;;;;;;;13.90;12.45;;;;;;;22.57;81.54;99781.38;341251;28;4987;-74
2022/07/21 00:34:15;;;;;;;15.30;12.48;;;;;;;22.58;82.00;99777.78;342866;28;2664;-74
2022/07/21 00:34:27;;;;;;;16.95;13.38;;;;;;;22.58;81.49;99775.13;343883;28;1235;-74
2022/07/21 00:34:39;;;;;;;17.92;13.27;;;;;;;22.59;80.90;99776.81;342281;28;2925;-74
2022/07/21 00:34:51;;;;;;;17.65;12.38;;;;;;;22.62;80.92;99779.22;342719;28;2025;-74
2022/07/21 00:35:06;;;;;;;17.67;12.40;;;;;;;22.63;80.52;99780.06;344189;28;1349;-74
2022/07/21 00:35:18;;;;;;;16.40;12.93;;;;;;;22.63;80.49;99780.06;344932;28;1097;-74
2022/07/21 00:35:31;;;;;;;15.65;12.88;;;;;;;22.63;80.23;99770.28;342575;28;2075;-74
2022/07/21 00:35:43;;;;;;;16.73;12.80;;;;;;;22.64;80.70;99774.66;343504;28;1854;-74
2022/07/21 00:35:55;;;;;;;16.75;12.80;;;;;;;22.66;81.10;99779.81;343841;28;1039;-74
2022/07/21 00:36:07;;;;;;;14.80;12.70;;;;;;;22.64;81.02;99777.28;343487;28;2867;-74
2022/07/21 00:36:20;;;;;;;14.27;12.77;;;;;;;22.62;80.25;99776.56;344733;28;1039;-74
2022/07/21 00:36:32;;;;;;;14.38;12.85;;;;;;;22.58;79.71;99772.50;345065;28;1079;-74
2022/07/21 00:36:44;;;;;;;14.82;12.57;;;;;;;22.60;79.72;99775.84;344119;28;1752;-74
2022/07/21 00:36:57;;;;;;;14.05;12.20;;;;;;;22.60;79.64;99775.84;342498;28;2047;-74
2022/07/21 00:37:08;;;;;;;13.50;11.90;;;;;;;22.61;79.54;99780.19;342517;28;1066;-74
2022/07/21 00:37:23;;;;;;;14.82;12.18;;;;;;;22.61;79.89;99769.56;342625;28;1245;-74
2022/07/21 00:37:36;;;;;;;15.57;12.30;;;;;;;22.62;80.21;99771.28;343039;28;1809;-74
2022/07/21 00:37:48;;;;;;;16.23;12.25;;;;;;;22.63;80.49;99769.47;344307;28;1638;-74
2022/07/21 00:38:00;;;;;;;16.58;12.40;;;;;;;22.64;80.52;99771.16;344399;28;1313;-74
2022/07/21 00:38:13;;;;;;;17.25;12.68;;;;;;;22.55;80.33;99772.72;344081;28;1143;-74
2022/07/21 00:38:25;;;;;;;15.73;12.75;;;;;;;22.57;80.61;99773.44;343782;28;2019;-74
2022/07/21 00:38:37;;;;;;;16.13;12.88;;;;;;;22.56;80.48;99773.56;344053;28;1076;-74
2022/07/21 00:38:56;;;;;;;15.40;13.18;;;;;;;22.58;81.32;99774.28;343709;28;1726;-74
2022/07/21 00:39:09;;;;;;;16.38;13.05;;;;;;;22.56;82.24;99779.72;344520;28;2179;-74
2022/07/21 00:39:21;;;;;;;18.25;13.20;;;;;;;22.59;81.46;99774.16;342570;28;1054;-74
2022/07/21 00:39:33;;;;;;;17.15;13.00;;;;;;;22.62;81.62;99773.94;342621;28;1027;-74
2022/07/21 00:39:45;;;;;;;16.60;12.98;;;;;;;22.65;81.23;99772.81;342149;28;1890;-74
2022/07/21 00:39:57;;;;;;;15.48;13.30;;;;;;;22.66;81.54;99775.34;342594;28;2016;-74
2022/07/21 00:40:10;;;;;;;15.52;13.45;;;;;;;22.68;81.88;99783.19;343602;28;2634;-74
2022/07/21 00:40:22;;;;;;;15.20;13.10;;;;;;;22.69;81.35;99774.25;343481;28;1698;-74
2022/07/21 00:40:34;;;;;;;15.10;13.00;;;;;;;22.70;81.69;99776.78;343665;28;1707;-74
2022/07/21 00:40:46;;;;;;;15.55;12.77;;;;;;;22.71;81.47;99775.81;344248;28;1642;-74
2022/07/21 00:40:58;;;;;;;14.13;12.55;;;;;;;22.72;81.36;99780.16;343748;28;1317;-74
2022/07/21 00:41:10;;;;;;;14.07;12.60;;;;;;;22.74;81.05;99780.88;343823;28;1038;-74
2022/07/21 00:41:22;;;;;;;14.20;12.63;;;;;;;22.76;81.10;99782.53;344036;28;1167;-74
2022/07/21 00:41:34;;;;;;;14.23;12.73;;;;;;;22.76;81.50;99780.75;343206;28;1561;-74
2022/07/21 00:41:46;;;;;;;14.40;12.75;;;;;;;22.76;81.29;99783.41;343705;28;1969;-74
2022/07/21 00:41:58;;;;;;;15.82;12.85;;;;;;;22.74;81.29;99783.53;343243;28;1298;-74
2022/07/21 00:42:24;;;;;;;16.23;13.10;;;;;;;22.73;80.91;99776.53;343899;28;1167;-74
2022/07/21 00:42:37;;;;;;;15.52;12.98;;;;;;;22.76;80.99;99780.75;342751;28;1540;-73
2022/07/21 00:42:49;;;;;;;15.57;13.07;;;;;;;22.76;81.13;99779.91;343689;28;1090;-73
2022/07/21 00:43:01;;;;;;;15.35;13.27;;;;;;;22.77;81.42;99776.28;343824;28;1494;-73
2022/07/21 00:43:13;;;;;;;16.40;13.38;;;;;;;22.78;80.75;99783.25;344159;28;1072;-73
2022/07/21 00:43:25;;;;;;;16.35;13.15;;;;;;;22.80;81.00;99781.31;344119;28;1018;-73
2022/07/21 00:43:37;;;;;;;15.95;12.38;;;;;;;22.74;80.33;99783.53;343902;28;1067;-73
2022/07/21 00:43:49;;;;;;;13.95;12.02;;;;;;;22.76;79.51;99782.53;342865;28;1945;-74
2022/07/21 00:44:01;;;;;;;13.82;12.30;;;;;;;22.74;79.44;99783.53;343181;28;1397;-73
2022/07/21 00:44:24;;;;;;;15.32;12.77;;;;;;;22.76;79.40;99771.94;345456;28;1078;-73
2022/07/21 00:44:36;;;;;;;15.77;12.85;;;;;;;22.76;79.63;99771.94;342557;28;1181;-73
2022/07/21 00:44:49;;;;;;;15.90;12.73;;;;;;;22.77;79.53;99778.94;344782;28;1863;-73
2022/07/21 00:45:04;;;;;;;14.77;12.50;;;;;;;22.78;79.74;99777.97;346395;28;1551;-73
2022/07/21 00:45:16;;;;;;;15.98;12.95;;;;;;;22.78;80.65;99776.19;346320;28;1029;-73
2022/07/21 00:45:28;;;;;;;16.35;13.13;;;;;;;22.79;80.14;99779.66;346203;28;1202;-73
2022/07/21 00:45:40;;;;;;;14.57;12.95;;;;;;;22.79;80.43;99774.34;346708;28;1287;-73
2022/07/21 00:45:54;;;;;;;14.50;12.95;;;;;;;22.77;81.23;99776.28;345461;28;2152;-73
2022/07/21 00:46:06;;;;;;;15.07;13.52;;;;;;;22.76;80.85;99772.81;346120;28;1795;-73
2022/07/21 00:46:21;;;;;;;15.35;13.70;;;;;;;22.77;80.83;99777.13;346487;28;1046;-73
2022/07/21 00:46:33;;;;;;;16.95;13.77;;;;;;;22.76;81.16;99775.47;346216;28;1034;-73
2022/07/21 00:46:46;;;;;;;17.63;13.75;;;;;;;22.79;81.34;99769.06;345453;28;1710;-73
2022/07/21 00:46:58;;;;;;;17.73;13.18;;;;;;;22.80;81.04;99781.31;343636;28;1432;-73
2022/07/21 00:47:10;;;;;;;15.50;12.52;;;;;;;22.80;81.07;99776.03;342735;28;1556;-73
2022/07/21 00:47:24;;;;;;;14.13;12.17;;;;;;;22.81;80.92;99775.91;343949;28;1721;-73
2022/07/21 00:47:37;;;;;;;15.75;12.50;;;;;;;22.81;80.66;99773.25;344031;28;1058;-73
2022/07/21 00:47:49;;;;;;;16.60;12.85;;;;;;;22.82;79.64;99779.38;342969;28;1777;-73
2022/07/21 00:48:02;;;;;;;14.57;12.73;;;;;;;22.80;79.47;99781.31;342585;28;1989;-73
2022/07/21 00:48:14;;;;;;;14.55;12.27;;;;;;;22.76;78.60;99783.41;343515;28;1062;-73
2022/07/21 00:48:26;;;;;;;15.10;12.35;;;;;;;22.76;79.11;99782.53;343853;28;1118;-73
2022/07/21 00:48:38;;;;;;;16.23;12.60;;;;;;;22.74;79.03;99783.53;343807;28;1015;-73
2022/07/21 00:48:50;;;;;;;16.25;12.40;;;;;;;22.77;78.96;99777.13;344154;28;1796;-73
2022/07/21 00:49:02;;;;;;;15.00;12.10;;;;;;;22.76;78.43;99782.53;344099;28;1280;-73
2022/07/21 00:49:15;;;;;;;14.32;12.48;;;;;;;22.72;78.55;99782.81;344929;28;1254;-73
2022/07/21 00:49:27;;;;;;;14.20;12.70;;;;;;;22.71;78.66;99789.06;345027;28;1253;-73
2022/07/21 00:49:40;;;;;;;14.57;13.07;;;;;;;22.70;78.58;99786.56;344511;28;1983;-72
2022/07/21 00:49:52;;;;;;;14.25;12.65;;;;;;;22.70;78.75;99787.38;343759;28;1847;-73
2022/07/21 00:50:10;;;;;;;14.40;12.52;;;;;;;22.70;78.86;99787.38;345004;28;1509;-73
2022/07/21 00:50:22;;;;;;;15.65;12.57;;;;;;;22.66;79.21;99785.13;344754;28;1268;-73
2022/07/21 00:50:34;;;;;;;16.75;12.40;;;;;;;22.68;79.24;99791.13;343934;28;1191;-73
2022/07/21 00:50:47;;;;;;;17.83;12.30;;;;;;;22.67;79.06;99797.38;343150;28;1800;-73
2022/07/21 00:50:59;;;;;;;16.27;12.40;;;;;;;22.66;79.26;99790.41;343258;28;1572;-73
2022/07/21 00:51:11;;;;;;;16.50;12.93;;;;;;;22.62;79.13;99789.81;342450;28;1310;-73
2022/07/21 00:51:23;;;;;;;16.35;12.88;;;;;;;22.62;79.30;99789.81;342588;28;1295;-73
2022/07/21 00:51:35;;;;;;;14.65;12.55;;;;;;;22.64;79.00;99787.06;344933;28;1197;-73
2022/07/21 00:51:48;;;;;;;13.75;12.30;;;;;;;22.63;79.22;99785.34;342960;28;2403;-73
2022/07/21 00:52:00;;;;;;;14.05;12.60;;;;;;;22.58;79.33;99793.69;342990;28;1561;-72
2022/07/21 00:52:12;;;;;;;14.57;13.00;;;;;;;22.54;79.37;99786.94;342906;28;1027;-73
2022/07/21 00:52:24;;;;;;;15.43;13.13;;;;;;;22.50;79.33;99783.69;342449;28;1833;-73
2022/07/21 00:52:37;;;;;;;15.50;12.88;;;;;;;22.53;79.59;99790.56;343576;28;1034;-73
2022/07/21 00:52:49;;;;;;;14.80;12.63;;;;;;;22.56;79.50;99795.63;343901;28;1984;-73
2022/07/21 00:53:01;;;;;;;14.43;12.57;;;;;;;22.57;79.67;99797.28;343332;28;1259;-73
2022/07/21 00:53:14;;;;;;;14.45;12.50;;;;;;;22.56;79.66;99795.63;344056;28;1507;-73
2022/07/21 00:53:26;;;;;;;15.18;12.95;;;;;;;22.58;79.42;99795.47;343994;28;1252;-73
2022/07/21 00:53:38;;;;;;;16.70;13.23;;;;;;;22.60;79.94;99791.75;342983;28;1897;-73
2022/07/21 00:53:50;;;;;;;16.53;13.17;;;;;;;22.60;79.53;99790.91;342950;28;1791;-73
2022/07/21 00:54:02;;;;;;;17.73;12.93;;;;;;;22.62;79.76;99794.28;343934;28;1643;-73
2022/07/21 00:54:15;;;;;;;16.80;13.18;;;;;;;22.60;79.71;99781.16;344899;28;1249;-73
2022/07/21 00:54:28;;;;;;;16.80;13.45;;;;;;;22.58;79.58;99788.38;344020;28;1736;-73
2022/07/21 00:54:40;;;;;;;14.70;12.82;;;;;;;22.57;79.63;99786.69;345174;28;1297;-74
2022/07/21 00:54:52;;;;;;;14.82;12.85;;;;;;;22.58;79.33;99788.38;343994;28;1893;-73
2022/07/21 00:55:05;;;;;;;14.10;12.60;;;;;;;22.62;79.52;99787.16;345223;28;1517;-73
2022/07/21 00:55:19;;;;;;;14.32;12.63;;;;;;;22.65;79.67;99789.56;345504;28;1277;-73
2022/07/21 00:55:31;;;;;;;15.05;12.38;;;;;;;22.68;80.04;99791.13;344633;28;1634;-73
2022/07/21 00:55:44;;;;;;;15.57;12.40;;;;;;;22.69;79.98;99790.16;344997;28;1191;-73
2022/07/21 00:55:57;;;;;;;14.45;12.45;;;;;;;22.69;79.61;99790.16;344749;28;1793;-73
2022/07/21 00:56:10;;;;;;;15.60;12.75;;;;;;;22.70;79.52;99784.75;346210;28;1192;-73
2022/07/21 00:56:22;;;;;;;14.05;12.35;;;;;;;22.71;79.75;99791.72;346318;28;1101;-73
2022/07/21 00:56:34;;;;;;;14.40;12.63;;;;;;;22.69;79.55;99788.34;346499;28;1105;-73
2022/07/21 00:56:47;;;;;;;14.65;12.98;;;;;;;22.68;79.35;99794.63;345444;28;1840;-73
2022/07/21 00:56:59;;;;;;;16.90;12.80;;;;;;;22.68;78.86;99793.78;343286;28;1295;-73
2022/07/21 00:57:12;;;;;;;15.90;12.50;;;;;;;22.63;78.74;99796.78;343932;28;1011;-73
2022/07/21 00:57:25;;;;;;;16.70;12.70;;;;;;;22.64;78.60;99795.84;343525;28;2061;-72
2022/07/21 00:57:37;;;;;;;17.60;12.73;;;;;;;22.64;78.57;99792.34;342502;28;1186;-73
2022/07/21 00:57:50;;;;;;;17.73;12.98;;;;;;;22.57;78.57;99792.00;342680;28;1562;-72
2022/07/21 00:58:02;;;;;;;15.82;13.05;;;;;;;22.53;79.14;99794.03;343112;28;1457;-73
2022/07/21 00:58:14;;;;;;;15.93;13.18;;;;;;;22.47;79.47;99797.19;343903;28;1159;-73
2022/07/21 00:58:26;;;;;;;15.38;13.27;;;;;;;22.47;79.48;99799.00;344791;28;1107;-73
2022/07/21 00:58:40;;;;;;;15.98;13.35;;;;;;;22.47;79.42;99801.63;343718;28;1431;-73
2022/07/21 00:58:52;;;;;;;15.45;13.15;;;;;;;22.47;80.10;99797.19;343093;28;1575;-73
2022/07/21 00:59:05;;;;;;;15.23;13.15;;;;;;;22.49;79.50;99795.25;343373;28;1759;-73
2022/07/21 00:59:17;;;;;;;15.80;13.35;;;;;;;22.46;79.80;99800.81;342635;28;1219;-73